createdAt,value
2022-09-14T00:02:05.941Z,67
2022-09-14T00:04:39.015Z,67
2022-09-14T00:07:14.460Z,66
2022-09-14T00:09:54.922Z,66
2022-09-14T00:12:27.054Z,66
2022-09-14T00:14:59.777Z,66
2022-09-14T00:17:33.753Z,66
2022-09-14T00:20:05.936Z,66
2022-09-14T00:22:41.445Z,66
2022-09-14T00:25:13.495Z,66
2022-09-14T00:27:45.942Z,66
2022-09-14T00:30:19.675Z,66
2022-09-14T00:32:52.422Z,66
2022-09-14T00:35:27.083Z,66
2022-09-14T00:38:01.686Z,66
2022-09-14T00:40:35.706Z,66
2022-09-14T00:43:08.199Z,66
2022-09-14T00:45:41.077Z,66
2022-09-14T00:48:13.321Z,66
2022-09-14T00:50:47.606Z,66
2022-09-14T00:53:22.456Z,65
2022-09-14T00:55:54.998Z,65
2022-09-14T00:58:27.339Z,65
2022-09-14T01:01:03.175Z,66
2022-09-14T01:03:37.342Z,66
2022-09-14T01:06:08.462Z,66
2022-09-14T01:08:40.120Z,66
2022-09-14T01:11:11.799Z,66
2022-09-14T01:13:45.051Z,66
2022-09-14T01:16:16.812Z,65
2022-09-14T01:18:49.432Z,65
2022-09-14T01:21:21.682Z,65
2022-09-14T01:23:54.160Z,65
2022-09-14T01:26:26.804Z,66
2022-09-14T01:28:59.597Z,66
2022-09-14T01:31:33.112Z,65
2022-09-14T01:34:05.543Z,66
2022-09-14T01:36:37.770Z,66
2022-09-14T01:39:10.495Z,66
2022-09-14T01:41:45.679Z,66
2022-09-14T01:44:17.050Z,66
2022-09-14T01:46:52.343Z,66
2022-09-14T01:49:23.896Z,66
2022-09-14T01:51:56.276Z,66
2022-09-14T01:54:31.612Z,65
2022-09-14T01:57:02.876Z,66
2022-09-14T01:59:35.248Z,66
2022-09-14T02:02:09.642Z,66
2022-09-14T02:04:42.358Z,66
2022-09-14T02:07:14.818Z,66
2022-09-14T02:09:47.005Z,67
2022-09-14T02:12:22.518Z,67
2022-09-14T02:14:56.787Z,67
2022-09-14T02:17:29.353Z,67
2022-09-14T02:20:01.791Z,67
2022-09-14T02:22:37.422Z,67
2022-09-14T02:25:08.590Z,67
2022-09-14T02:27:41.432Z,67
2022-09-14T02:30:18.910Z,68
2022-09-14T02:32:51.751Z,67
2022-09-14T02:35:23.879Z,67
2022-09-14T02:37:56.455Z,67
2022-09-14T02:40:30.572Z,67
2022-09-14T02:43:02.203Z,67
2022-09-14T02:45:35.691Z,66
2022-09-14T02:48:07.852Z,66
2022-09-14T02:50:40.429Z,66
2022-09-14T02:53:12.987Z,67
2022-09-14T02:55:45.271Z,67
2022-09-14T02:58:22.729Z,66
2022-09-14T03:00:56.436Z,67
2022-09-14T03:03:36.543Z,67
2022-09-14T03:06:07.278Z,67
2022-09-14T03:08:42.229Z,68
2022-09-14T03:11:13.471Z,68
2022-09-14T03:13:45.930Z,68
2022-09-14T03:16:22.248Z,68
2022-09-14T03:18:55.783Z,68
2022-09-14T03:21:27.509Z,69
2022-09-14T03:24:01.191Z,69
2022-09-14T03:26:33.671Z,69
2022-09-14T03:29:07.649Z,69
2022-09-14T03:31:44.303Z,70
2022-09-14T03:34:15.950Z,70
2022-09-14T03:36:47.982Z,70
2022-09-14T03:39:19.427Z,69
2022-09-14T03:41:51.547Z,69
2022-09-14T03:44:23.887Z,69
2022-09-14T03:46:58.480Z,69
2022-09-14T03:49:30.793Z,70
2022-09-14T03:52:02.839Z,70
2022-09-14T03:54:35.384Z,70
2022-09-14T03:57:07.923Z,70
2022-09-14T03:59:44.803Z,70
2022-09-14T04:02:17.245Z,69
2022-09-14T04:04:48.372Z,68
2022-09-14T04:07:23.598Z,68
2022-09-14T04:09:55.305Z,68
2022-09-14T04:12:27.811Z,68
2022-09-14T04:15:00.139Z,68
2022-09-14T04:17:32.540Z,68
2022-09-14T04:20:06.099Z,68
2022-09-14T04:22:38.840Z,68
2022-09-14T04:25:11.670Z,68
2022-09-14T04:28:21.177Z,69
2022-09-14T04:30:51.959Z,68
2022-09-14T04:33:26.453Z,69
2022-09-14T04:35:59.228Z,69
2022-09-14T04:38:32.579Z,69
2022-09-14T04:41:05.384Z,69
2022-09-14T04:43:40.277Z,69
2022-09-14T04:46:14.349Z,69
2022-09-14T04:48:46.322Z,69
2022-09-14T04:51:18.854Z,69
2022-09-14T04:53:51.649Z,69
2022-09-14T04:56:24.094Z,69
2022-09-14T04:58:56.731Z,69
2022-09-14T05:01:29.743Z,68
2022-09-14T05:04:02.553Z,69
2022-09-14T05:06:35.831Z,68
2022-09-14T05:09:08.251Z,67
2022-09-14T05:11:40.827Z,67
2022-09-14T05:14:13.425Z,67
2022-09-14T05:16:46.539Z,67
2022-09-14T05:19:19.519Z,67
2022-09-14T05:21:52.945Z,66
2022-09-14T05:24:25.745Z,66
2022-09-14T05:27:03.131Z,66
2022-09-14T05:29:33.879Z,66
2022-09-14T05:32:06.648Z,66
2022-09-14T05:34:42.411Z,66
2022-09-14T05:37:15.326Z,66
2022-09-14T05:39:50.201Z,66
2022-09-14T05:42:21.873Z,65
2022-09-14T05:44:54.810Z,65
2022-09-14T05:47:27.452Z,65
2022-09-14T05:49:59.750Z,64
2022-09-14T05:52:38.595Z,64
2022-09-14T05:55:10.578Z,63
2022-09-14T05:57:42.720Z,63
2022-09-14T06:00:17.466Z,63
2022-09-14T06:02:50.238Z,63
2022-09-14T06:05:23.781Z,63
2022-09-14T06:07:57.298Z,62
2022-09-14T06:10:30.421Z,62
2022-09-14T06:13:03.765Z,61
2022-09-14T06:15:36.737Z,61
2022-09-14T06:18:09.299Z,61
2022-09-14T06:20:41.605Z,61
2022-09-14T06:23:15.010Z,60
2022-09-14T06:25:47.685Z,60
2022-09-14T06:28:20.066Z,60
2022-09-14T06:30:53.718Z,59
2022-09-14T06:33:26.115Z,59
2022-09-14T06:35:58.531Z,59
2022-09-14T06:38:31.166Z,59
2022-09-14T06:41:04.630Z,59
2022-09-14T06:43:37.660Z,60
2022-09-14T06:46:12.423Z,60
2022-09-14T06:48:45.377Z,60
2022-09-14T06:51:17.961Z,59
2022-09-14T06:53:53.858Z,59
2022-09-14T06:56:26.952Z,58
2022-09-14T07:01:40.507Z,58
2022-09-14T07:04:13.193Z,58
2022-09-14T07:06:45.370Z,57
2022-09-14T07:09:18.069Z,57
2022-09-14T07:11:51.357Z,56
2022-09-14T07:14:21.794Z,57
2022-09-14T07:16:56.248Z,56
2022-09-14T07:19:28.964Z,56
2022-09-14T07:22:01.706Z,56
2022-09-14T07:24:34.460Z,55
2022-09-14T07:27:07.141Z,55
2022-09-14T07:29:41.771Z,56
2022-09-14T07:32:14.441Z,55
2022-09-14T07:34:47.147Z,54
2022-09-14T07:37:19.814Z,54
2022-09-14T07:39:54.182Z,54
2022-09-14T07:42:26.975Z,53
2022-09-14T07:45:00.401Z,53
2022-09-14T07:47:32.728Z,53
2022-09-14T07:50:08.237Z,52
2022-09-14T07:52:39.917Z,52
2022-09-14T07:55:12.642Z,51
2022-09-14T07:57:57.484Z,50
2022-09-14T08:00:28.060Z,48
2022-09-14T08:03:00.343Z,49
2022-09-14T08:05:33.340Z,50
2022-09-14T08:08:05.823Z,50
2022-09-14T08:10:42.694Z,48
2022-09-14T08:13:14.927Z,48
2022-09-14T08:15:47.620Z,47
2022-09-14T08:18:20.429Z,47
2022-09-14T08:20:53.531Z,46
2022-09-14T08:23:26.403Z,44
2022-09-14T08:25:58.758Z,43
2022-09-14T08:28:31.167Z,43
2022-09-14T08:31:05.335Z,43
2022-09-14T08:33:38.209Z,41
2022-09-14T08:36:10.940Z,41
2022-09-14T08:38:43.429Z,41
2022-09-14T08:41:14.677Z,41
2022-09-14T08:43:47.178Z,41
2022-09-14T08:46:20.266Z,42
2022-09-14T08:48:52.766Z,40
2022-09-14T08:51:27.440Z,41
2022-09-14T08:54:00.422Z,41
2022-09-14T08:56:33.064Z,40
2022-09-14T08:59:05.886Z,42
2022-09-14T09:01:39.212Z,42
2022-09-14T09:04:12.417Z,41
2022-09-14T09:06:46.314Z,42
2022-09-14T09:09:20.597Z,42
2022-09-14T09:11:53.367Z,42
2022-09-14T09:14:27.159Z,42
2022-09-14T09:17:00.091Z,42
2022-09-14T09:19:34.602Z,40
2022-09-14T09:22:08.061Z,40
2022-09-14T09:24:41.091Z,41
2022-09-14T09:27:13.782Z,42
2022-09-14T09:29:46.290Z,41
2022-09-14T09:32:19.247Z,40
2022-09-14T09:34:51.292Z,40
2022-09-14T09:37:23.926Z,41
2022-09-14T09:39:56.238Z,40
2022-09-14T09:42:30.457Z,40
2022-09-14T09:45:05.511Z,39
2022-09-14T09:47:36.910Z,40
2022-09-14T09:50:09.306Z,39
2022-09-14T09:52:41.493Z,39
2022-09-14T09:55:14.283Z,39
2022-09-14T09:57:47.288Z,39
2022-09-14T10:00:19.934Z,39
2022-09-14T10:02:52.641Z,39
2022-09-14T10:05:25.705Z,38
2022-09-14T10:07:59.405Z,38
2022-09-14T10:10:32.156Z,39
2022-09-14T10:13:05.551Z,38
2022-09-14T10:15:39.341Z,38
2022-09-14T10:18:12.822Z,38
2022-09-14T10:20:46.961Z,38
2022-09-14T10:23:20.132Z,37
2022-09-14T10:25:58.699Z,38
2022-09-14T10:28:31.513Z,37
2022-09-14T10:31:05.800Z,37
2022-09-14T10:33:38.191Z,37
2022-09-14T10:36:10.769Z,38
2022-09-14T10:38:43.341Z,38
2022-09-14T10:41:16.835Z,34
2022-09-14T10:43:49.742Z,36
2022-09-14T10:46:22.901Z,35
2022-09-14T10:48:55.480Z,36
2022-09-14T10:51:28.427Z,35
2022-09-14T10:54:00.886Z,35
2022-09-14T10:56:33.349Z,37
2022-09-14T10:59:06.782Z,36
2022-09-14T11:01:41.925Z,36
2022-09-14T11:04:13.904Z,34
2022-09-14T11:06:46.677Z,36
2022-09-14T11:09:19.050Z,35
2022-09-14T11:11:51.830Z,36
2022-09-14T11:14:24.909Z,36
2022-09-14T11:16:57.111Z,35
2022-09-14T11:19:32.404Z,37
2022-09-14T11:22:04.974Z,38
2022-09-14T11:24:37.576Z,36
2022-09-14T11:27:10.149Z,35
2022-09-14T11:29:42.755Z,37
2022-09-14T11:32:23.427Z,37
2022-09-14T11:34:54.323Z,38
2022-09-14T11:37:26.838Z,39
2022-09-14T11:40:00.226Z,38
2022-09-14T11:42:32.461Z,39
2022-09-14T11:45:05.217Z,38
2022-09-14T11:47:37.582Z,38
2022-09-14T11:50:10.429Z,37
2022-09-14T11:52:43.579Z,38
2022-09-14T11:55:15.823Z,36
2022-09-14T11:57:49.318Z,38
2022-09-14T12:00:22.867Z,37
2022-09-14T12:02:55.690Z,36
2022-09-14T12:05:28.090Z,36
2022-09-14T12:08:00.725Z,36
2022-09-14T12:10:33.326Z,36
2022-09-14T12:13:05.814Z,36
2022-09-14T12:15:38.584Z,39
2022-09-14T12:18:11.079Z,39
2022-09-14T12:20:44.783Z,37
2022-09-14T12:23:17.893Z,38
2022-09-14T12:25:50.140Z,37
2022-09-14T12:28:22.495Z,38
2022-09-14T12:31:03.226Z,37
2022-09-14T12:33:34.914Z,39
2022-09-14T12:36:09.923Z,39
2022-09-14T12:38:43.800Z,39
2022-09-14T12:41:18.093Z,40
2022-09-14T12:43:53.927Z,40
2022-09-14T12:46:25.913Z,38
2022-09-14T12:48:58.740Z,40
2022-09-14T12:51:31.296Z,39
2022-09-14T12:54:04.866Z,39
2022-09-14T12:56:36.853Z,40
2022-09-14T12:59:09.533Z,39
2022-09-14T13:01:43.207Z,38
2022-09-14T13:04:15.105Z,38
2022-09-14T13:06:47.281Z,39
2022-09-14T13:09:19.685Z,37
2022-09-14T13:11:52.324Z,36
2022-09-14T13:14:25.180Z,36
2022-09-14T13:16:57.709Z,36
2022-09-14T13:19:31.275Z,37
2022-09-14T13:22:03.327Z,37
2022-09-14T13:24:38.859Z,37
2022-09-14T13:27:11.700Z,38
2022-09-14T13:29:47.025Z,38
2022-09-14T13:32:22.157Z,38
2022-09-14T13:34:56.163Z,40
2022-09-14T13:37:28.740Z,38
2022-09-14T13:40:00.692Z,38
2022-09-14T13:42:35.408Z,39
2022-09-14T13:45:06.883Z,38
2022-09-14T13:47:40.157Z,39
2022-09-14T13:50:12.922Z,38
2022-09-14T13:53:05.152Z,38
2022-09-14T13:55:36.125Z,39
2022-09-14T13:58:09.484Z,40
2022-09-14T14:00:42.996Z,40
2022-09-14T14:03:20.004Z,40
2022-09-14T14:05:53.159Z,40
2022-09-14T14:08:23.919Z,40
2022-09-14T14:10:56.164Z,40
2022-09-14T14:13:28.357Z,40
2022-09-14T14:16:00.990Z,40
2022-09-14T14:18:33.313Z,41
2022-09-14T14:21:05.694Z,41
2022-09-14T14:24:14.193Z,41
2022-09-14T14:26:44.742Z,41
2022-09-14T14:29:17.054Z,41
2022-09-14T14:31:52.309Z,40
2022-09-14T14:34:24.767Z,42
2022-09-14T14:36:57.013Z,41
2022-09-14T14:39:31.136Z,41
2022-09-14T14:42:03.824Z,42
2022-09-14T14:44:36.544Z,42
2022-09-14T14:47:12.635Z,43
2022-09-14T14:49:45.606Z,44
2022-09-14T14:52:19.929Z,43
2022-09-14T14:54:52.600Z,42
2022-09-14T14:57:29.217Z,43
2022-09-14T15:00:00.852Z,42
2022-09-14T15:02:33.076Z,43
2022-09-14T15:05:07.846Z,43
2022-09-14T15:07:40.203Z,43
2022-09-14T15:10:12.898Z,43
2022-09-14T15:12:48.247Z,44
2022-09-14T15:15:22.336Z,44
2022-09-14T15:17:55.583Z,45
2022-09-14T15:20:30.913Z,46
2022-09-14T15:23:02.630Z,46
2022-09-14T15:25:34.927Z,46
2022-09-14T15:28:08.763Z,46
2022-09-14T15:30:41.453Z,46
2022-09-14T15:33:14.923Z,47
2022-09-14T15:35:47.226Z,47
2022-09-14T15:38:20.995Z,46
2022-09-14T15:40:53.679Z,47
2022-09-14T15:43:26.344Z,47
2022-09-14T15:45:59.687Z,47
2022-09-14T15:48:32.333Z,48
2022-09-14T15:51:05.447Z,48
2022-09-14T15:53:38.499Z,48
2022-09-14T15:56:11.105Z,49
2022-09-14T15:58:48.918Z,49
2022-09-14T16:01:20.470Z,49
2022-09-14T16:03:51.280Z,50
2022-09-14T16:06:24.104Z,50
2022-09-14T16:09:03.819Z,51
2022-09-14T16:11:37.557Z,51
2022-09-14T16:14:10.475Z,52
2022-09-14T16:16:43.853Z,52
2022-09-14T16:19:16.121Z,51
2022-09-14T16:21:54.602Z,52
2022-09-14T16:24:25.199Z,53
2022-09-14T16:27:00.655Z,52
2022-09-14T16:29:31.733Z,52
2022-09-14T16:32:04.605Z,53
2022-09-14T16:34:39.830Z,53
2022-09-14T16:37:18.332Z,54
2022-09-14T16:39:48.595Z,54
2022-09-14T16:42:20.883Z,54
2022-09-14T16:44:53.445Z,54
2022-09-14T16:47:26.107Z,54
2022-09-14T16:49:58.658Z,54
2022-09-14T16:52:31.610Z,55
2022-09-14T16:55:04.172Z,55
2022-09-14T16:57:36.760Z,55
2022-09-14T17:00:09.355Z,57
2022-09-14T17:02:44.353Z,59
2022-09-14T17:05:19.438Z,61
2022-09-14T17:07:54.999Z,62
2022-09-14T17:10:26.884Z,62
2022-09-14T17:13:00.726Z,62
2022-09-14T17:15:32.643Z,61
2022-09-14T17:18:05.493Z,62
2022-09-14T17:20:38.682Z,62
2022-09-14T17:23:11.829Z,63
2022-09-14T17:25:44.386Z,62
2022-09-14T17:28:19.700Z,63
2022-09-14T17:30:51.266Z,63
2022-09-14T17:33:23.919Z,63
2022-09-14T17:35:58.060Z,64
2022-09-14T17:38:30.355Z,63
2022-09-14T17:41:03.246Z,63
2022-09-14T17:43:37.073Z,64
2022-09-14T17:46:10.457Z,64
2022-09-14T17:48:42.674Z,64
2022-09-14T17:51:16.677Z,64
2022-09-14T17:53:49.697Z,64
2022-09-14T17:56:24.893Z,65
2022-09-14T17:59:00.287Z,65
2022-09-14T18:01:32.407Z,65
2022-09-14T18:04:04.980Z,66
2022-09-14T18:06:38.309Z,66
2022-09-14T18:09:12.669Z,66
2022-09-14T18:11:45.186Z,66
2022-09-14T18:14:18.262Z,66
2022-09-14T18:16:53.337Z,66
2022-09-14T18:19:25.965Z,66
2022-09-14T18:21:58.420Z,65
2022-09-14T18:24:31.768Z,65
2022-09-14T18:27:03.810Z,66
2022-09-14T18:29:36.067Z,66
2022-09-14T18:32:08.384Z,66
2022-09-14T18:34:41.745Z,67
2022-09-14T18:37:14.105Z,67
2022-09-14T18:39:47.244Z,67
2022-09-14T18:42:19.969Z,67
2022-09-14T18:44:52.162Z,67
2022-09-14T18:47:27.466Z,68
2022-09-14T18:49:59.767Z,67
2022-09-14T18:52:35.025Z,68
2022-09-14T18:55:08.625Z,68
2022-09-14T18:57:42.263Z,68
2022-09-14T19:00:20.673Z,68
2022-09-14T19:02:55.680Z,68
2022-09-14T19:05:27.462Z,69
2022-09-14T19:07:59.804Z,68
2022-09-14T19:10:32.797Z,68
2022-09-14T19:13:12.303Z,67
2022-09-14T19:15:45.805Z,67
2022-09-14T19:18:20.724Z,67
2022-09-14T19:21:07.976Z,67
2022-09-14T19:23:38.228Z,67
2022-09-14T19:26:13.889Z,68
2022-09-14T19:28:46.694Z,68
2022-09-14T19:31:19.514Z,68
2022-09-14T19:33:54.385Z,68
2022-09-14T19:36:28.850Z,68
2022-09-14T19:39:00.460Z,68
2022-09-14T19:41:33.189Z,68
2022-09-14T19:44:05.246Z,67
2022-09-14T19:46:38.222Z,68
2022-09-14T19:49:10.174Z,68
2022-09-14T19:51:42.603Z,68
2022-09-14T19:54:14.714Z,68
2022-09-14T19:56:49.851Z,69
2022-09-14T19:59:22.109Z,69
2022-09-14T20:01:56.757Z,68
2022-09-14T20:04:28.658Z,69
2022-09-14T20:07:00.848Z,68
2022-09-14T20:09:33.549Z,68
2022-09-14T20:12:06.290Z,68
2022-09-14T20:14:38.662Z,68
2022-09-14T20:17:10.947Z,68
2022-09-14T20:19:43.253Z,67
2022-09-14T20:22:17.710Z,67
2022-09-14T20:24:50.424Z,68
2022-09-14T20:27:24.548Z,68
2022-09-14T20:29:57.356Z,68
2022-09-14T20:32:32.448Z,68
2022-09-14T20:35:05.618Z,68
2022-09-14T20:37:37.522Z,69
2022-09-14T20:40:10.833Z,69
2022-09-14T20:42:43.034Z,69
2022-09-14T20:45:16.556Z,69
2022-09-14T20:47:48.972Z,69
2022-09-14T20:50:21.238Z,69
2022-09-14T20:52:52.342Z,69
2022-09-14T20:55:24.638Z,70
2022-09-14T20:57:56.966Z,70
2022-09-14T21:00:29.787Z,70
2022-09-14T21:03:02.906Z,69
2022-09-14T21:05:35.370Z,69
2022-09-14T21:08:07.696Z,70
2022-09-14T21:10:40.304Z,70
2022-09-14T21:13:14.747Z,70
2022-09-14T21:15:52.838Z,70
2022-09-14T21:18:24.636Z,70
2022-09-14T21:21:03.496Z,71
2022-09-14T21:23:35.946Z,71
2022-09-14T21:26:10.924Z,71
2022-09-14T21:28:42.931Z,71
2022-09-14T21:31:18.228Z,71
2022-09-14T21:33:51.875Z,71
2022-09-14T21:36:24.293Z,71
2022-09-14T21:38:56.934Z,70
2022-09-14T21:41:28.090Z,70
2022-09-14T21:44:00.280Z,70
2022-09-14T21:46:33.573Z,70
2022-09-14T21:49:06.672Z,70
2022-09-14T21:51:40.577Z,70
2022-09-14T21:54:16.289Z,70
2022-09-14T21:56:48.824Z,71
2022-09-14T21:59:25.793Z,71
2022-09-14T22:01:58.736Z,71
2022-09-14T22:04:31.165Z,71
2022-09-14T22:07:03.370Z,71
2022-09-14T22:09:36.378Z,71
2022-09-14T22:12:25.458Z,71
2022-09-14T22:14:56.606Z,71
2022-09-14T22:17:28.338Z,71
2022-09-14T22:19:59.042Z,71
2022-09-14T22:22:31.971Z,71
2022-09-14T22:25:04.378Z,71
2022-09-14T22:27:36.330Z,70
2022-09-14T22:30:11.646Z,71
2022-09-14T22:32:48.219Z,71
2022-09-14T22:35:23.454Z,71
2022-09-14T22:37:57.800Z,71
2022-09-14T22:40:32.349Z,71
2022-09-14T22:43:07.710Z,71
2022-09-14T22:45:40.083Z,71
2022-09-14T22:48:14.858Z,70
2022-09-14T22:50:46.776Z,70
2022-09-14T22:53:18.618Z,70
2022-09-14T22:55:50.586Z,70
2022-09-14T22:58:23.361Z,70
2022-09-14T23:01:00.602Z,70
2022-09-14T23:03:32.064Z,70
2022-09-14T23:06:04.457Z,70
2022-09-14T23:08:39.590Z,70
2022-09-14T23:11:10.918Z,70
2022-09-14T23:13:43.041Z,70
2022-09-14T23:16:19.133Z,71
2022-09-14T23:18:51.718Z,70
2022-09-14T23:21:26.339Z,70
2022-09-14T23:23:59.002Z,71
2022-09-14T23:26:31.435Z,71
2022-09-14T23:29:03.887Z,71
2022-09-14T23:31:36.812Z,71
2022-09-14T23:34:08.953Z,71
2022-09-14T23:36:41.898Z,71
2022-09-14T23:39:14.244Z,71
2022-09-14T23:41:48.082Z,72
2022-09-14T23:44:23.229Z,72
2022-09-14T23:46:54.691Z,72
2022-09-14T23:49:27.578Z,72
2022-09-14T23:52:02.962Z,71
2022-09-14T23:54:34.190Z,71
2022-09-14T23:57:06.702Z,71
2022-09-14T23:59:40.222Z,71
